Terminal Aerodrome Forecast
Issued by NWS

Home | Current Version | Previous Version | Graphics & Text | Print | Product List | Glossary On
Versions: 1 2 3 4 5 6 7 8 9 10 11 12 13 14 15 16 17 18 19
203
FTUS43 KABR 281727
TAFATY
TAF
KATY 281727Z 2818/2918 02008KT P6SM FEW020
     FM290200 05005KT P6SM SKC
     FM290900 11004KT P6SM FEW010 FEW200
      TEMPO 2910/2913 4SM BR=

USA.gov is the U.S. government's official web portal to all federal, state and local government web resources and services.